Terminal Aerodrome Forecast
Issued by NWS Charleston, WV

Current Version | Previous Version | Text Only | Print | Product List | Glossary Off
Versions: 1 2 3 4 5 6 7 8 9 10 11 12 13 14 15 16 17 18 19 20 21 22 23 24 25 26 27

000
FTUS41 KRLX 302300 RRA
TAFEKN
TAF
KEKN 302346Z 3100/3124 17005KT P6SM BKN250
     FM310800 25005KT 5SM BR VCSH OVC045
     FM311200 24005KT P6SM OVC045
     FM311800 25008KT 3SM SHRA VCTS OVC040CB PROB30 3118/3120 2SM
      -TSRA OVC050CB
     FM312200 25007KT P6SM OVC050=

USA.gov is the U.S. government's official web portal to all federal, state and local government web resources and services.